Time;durP1;ratioP1;P1;durP2;ratioP2;P2;SDS_P1;SDS_P2;PMS_P1;PMS_P2;Temp;Humidity;BMP_temperature;BMP_pressure;BME280_temperature;BME280_humidity;BME280_pressure;Samples;Min_cycle;Max_cycle;Signal;HPM_P1;HPM_P2
2023/02/18 00:01:18;;;;;;;31.75;17.52;;;-7.70;98.40;;;;;;5057428;28;20025;-80
2023/02/18 00:03:44;;;;;;;36.63;17.73;;;-7.70;98.30;;;;;;5045144;28;20025;-79
2023/02/18 00:06:17;;;;;;;35.38;17.00;;;-7.80;98.40;;;;;;5060347;28;20385;-80
2023/02/18 00:08:44;;;;;;;24.15;13.55;;;-7.80;98.40;;;;;;5059414;28;20017;-80
2023/02/18 00:11:11;;;;;;;21.70;11.52;;;-7.80;98.50;;;;;;5053495;28;20025;-79
2023/02/18 00:13:37;;;;;;;34.03;16.33;;;-7.80;98.50;;;;;;5038121;28;20045;-80
2023/02/18 00:16:06;;;;;;;26.77;15.77;;;-7.90;98.40;;;;;;5055701;28;20032;-78
2023/02/18 00:18:32;;;;;;;32.40;18.08;;;-7.80;98.50;;;;;;5056659;28;20029;-79
2023/02/18 00:20:58;;;;;;;36.35;19.08;;;-7.90;98.50;;;;;;5056223;28;20049;-79
2023/02/18 00:23:24;;;;;;;30.98;16.83;;;-7.80;98.50;;;;;;5057090;28;20032;-78
2023/02/18 00:26:00;;;;;;;29.25;13.25;;;-7.80;98.40;;;;;;5062314;28;20037;-77
2023/02/18 00:28:26;;;;;;;30.77;12.68;;;-7.90;98.40;;;;;;5067987;28;20017;-80
2023/02/18 00:30:52;;;;;;;28.75;13.88;;;-7.80;98.40;;;;;;5040725;28;20021;-80
2023/02/18 00:33:18;;;;;;;25.13;17.02;;;-7.80;98.30;;;;;;5055737;28;20028;-79
2023/02/18 00:35:44;;;;;;;30.75;15.73;;;-7.80;98.30;;;;;;5055783;28;20025;-79
2023/02/18 00:38:10;;;;;;;26.27;14.70;;;-7.80;98.30;;;;;;5019588;28;20022;-79
2023/02/18 00:40:40;;;;;;;31.40;17.90;;;-7.80;98.30;;;;;;5053901;28;20021;-79
2023/02/18 00:43:06;;;;;;;32.05;18.05;;;-7.80;98.40;;;;;;5060921;28;20005;-78
2023/02/18 00:45:32;;;;;;;38.85;14.23;;;-7.80;98.60;;;;;;5057973;28;20028;-80
2023/02/18 00:47:58;;;;;;;23.08;13.05;;;-7.80;98.30;;;;;;5036318;28;20029;-77
2023/02/18 00:50:24;;;;;;;28.90;16.95;;;-7.80;98.30;;;;;;5054136;28;20537;-79
2023/02/18 00:52:50;;;;;;;39.80;18.60;;;-7.80;98.30;;;;;;5028685;28;20500;-80
2023/02/18 00:55:16;;;;;;;21.20;12.40;;;-7.80;98.30;;;;;;5055748;28;20389;-78
2023/02/18 00:57:42;;;;;;;31.13;13.32;;;-7.80;98.40;;;;;;5055866;28;20029;-79
2023/02/18 01:00:08;;;;;;;28.13;14.27;;;-7.80;98.40;;;;;;5055511;28;20017;-81
2023/02/18 01:02:34;;;;;;;23.42;12.48;;;-7.80;98.40;;;;;;5048198;28;20037;-80
2023/02/18 01:05:00;;;;;;;37.60;16.48;;;-7.90;98.30;;;;;;5049954;28;20028;-78
2023/02/18 01:07:26;;;;;;;27.58;11.55;;;-7.90;98.30;;;;;;5054875;28;20029;-79
2023/02/18 01:09:52;;;;;;;27.33;13.77;;;-7.90;98.30;;;;;;5053890;28;20492;-80
2023/02/18 01:12:18;;;;;;;18.35;12.10;;;-7.90;98.30;;;;;;5047925;28;20041;-80
2023/02/18 01:14:44;;;;;;;29.10;13.90;;;-8.00;98.30;;;;;;5055660;28;20025;-81
2023/02/18 01:17:10;;;;;;;25.02;13.68;;;-8.00;98.30;;;;;;5052105;28;21421;-79
2023/02/18 01:19:36;;;;;;;18.25;12.05;;;-8.00;98.30;;;;;;5052760;28;20025;-78
2023/02/18 01:22:02;;;;;;;29.30;13.52;;;-8.00;98.30;;;;;;5036585;28;20440;-79
2023/02/18 01:24:28;;;;;;;21.27;12.10;;;-8.10;98.20;;;;;;5032127;28;20402;-79
2023/02/18 01:26:53;;;;;;;19.17;10.82;;;-8.10;98.20;;;;;;5053738;28;20044;-79
2023/02/18 01:29:19;;;;;;;21.10;10.77;;;-8.10;98.20;;;;;;5046601;28;20017;-79
2023/02/18 01:31:45;;;;;;;29.38;16.15;;;-8.10;98.20;;;;;;5055170;28;20025;-79
2023/02/18 01:34:11;;;;;;;32.00;17.40;;;-8.10;98.30;;;;;;5056328;28;20021;-78
2023/02/18 01:36:37;;;;;;;37.95;16.55;;;-8.10;98.30;;;;;;5033924;28;20025;-79
2023/02/18 01:39:05;;;;;;;27.95;13.73;;;-8.10;98.30;;;;;;5039784;28;20025;-79
2023/02/18 01:41:31;;;;;;;33.53;16.80;;;-8.10;98.40;;;;;;5049638;28;20024;-80
2023/02/18 01:44:24;;;;;;;26.58;13.15;;;-8.10;98.50;;;;;;5049352;28;20025;-79
2023/02/18 01:46:50;;;;;;;36.30;18.38;;;-8.10;98.50;;;;;;5044303;28;20090;-81
2023/02/18 01:49:21;;;;;;;20.77;10.73;;;-8.10;98.50;;;;;;5045763;28;20017;-78
2023/02/18 01:51:53;;;;;;;25.88;15.68;;;-8.10;98.50;;;;;;5053131;28;20026;-79
2023/02/18 01:54:30;;;;;;;38.58;18.88;;;-8.10;98.50;;;;;;5046227;28;20017;-78
2023/02/18 01:57:07;;;;;;;34.67;16.83;;;-7.90;98.60;;;;;;5054308;28;20039;-78
2023/02/18 01:59:49;;;;;;;28.23;15.55;;;-7.80;98.60;;;;;;5042479;28;20025;-79
2023/02/18 02:02:19;;;;;;;24.55;14.60;;;-7.80;98.30;;;;;;5057797;28;20405;-77
2023/02/18 02:04:45;;;;;;;28.40;16.45;;;-7.80;98.10;;;;;;5036243;28;20571;-79
2023/02/18 02:07:11;;;;;;;21.33;13.33;;;-7.80;98.10;;;;;;5066301;28;20033;-78
2023/02/18 02:09:39;;;;;;;20.55;11.80;;;-7.70;98.10;;;;;;5056054;28;20025;-78
2023/02/18 02:12:32;;;;;;;20.55;10.70;;;-7.60;98.00;;;;;;5057533;28;20413;-80
2023/02/18 02:15:03;;;;;;;32.60;16.80;;;-7.60;98.00;;;;;;5068983;28;20028;-79
2023/02/18 02:17:56;;;;;;;40.72;17.42;;;-7.60;98.00;;;;;;5068435;28;20025;-79
2023/02/18 02:21:01;;;;;;;16.90;10.98;;;-7.50;97.90;;;;;;5063927;28;20060;-81
2023/02/18 02:23:46;;;;;;;20.38;10.40;;;-7.50;97.40;;;;;;5054009;28;20017;-79
2023/02/18 02:26:48;;;;;;;23.35;10.23;;;-7.70;97.50;;;;;;5039985;28;20034;-80
2023/02/18 02:29:14;;;;;;;27.48;12.88;;;-7.80;97.90;;;;;;5052245;28;20049;-79
2023/02/18 02:31:43;;;;;;;25.23;16.17;;;-7.80;98.10;;;;;;5053074;28;20186;-79
2023/02/18 02:34:33;;;;;;;25.42;14.63;;;-7.70;98.20;;;;;;5050675;28;20024;-78
2023/02/18 02:37:13;;;;;;;25.10;15.23;;;-7.70;98.10;;;;;;5035418;28;20037;-80
2023/02/18 02:40:02;;;;;;;19.38;10.82;;;-7.70;98.20;;;;;;5053081;28;20029;-81
2023/02/18 02:42:47;;;;;;;16.73;8.45;;;-7.70;98.10;;;;;;5033150;28;20028;-79
2023/02/18 02:45:17;;;;;;;26.35;13.70;;;-7.70;98.10;;;;;;5053133;28;20063;-80
2023/02/18 02:47:57;;;;;;;33.38;19.00;;;-7.70;98.10;;;;;;5053292;28;20064;-79
2023/02/18 02:50:26;;;;;;;18.75;10.38;;;-7.60;98.40;;;;;;5053365;28;20465;-79
2023/02/18 02:52:59;;;;;;;24.65;14.15;;;-7.60;98.30;;;;;;5053104;28;20025;-79
2023/02/18 02:55:24;;;;;;;22.75;12.55;;;-7.60;98.00;;;;;;5053406;28;20025;-80
2023/02/18 02:57:54;;;;;;;23.73;10.15;;;-7.70;98.00;;;;;;5053067;28;20049;-79
2023/02/18 03:00:37;;;;;;;27.42;15.80;;;-7.80;98.20;;;;;;5055383;28;20104;-78
2023/02/18 03:03:46;;;;;;;15.05;9.02;;;-7.80;98.40;;;;;;5041114;28;20091;-78
2023/02/18 03:06:42;;;;;;;20.98;9.93;;;-7.70;98.60;;;;;;5035691;28;20048;-78
2023/02/18 03:09:38;;;;;;;30.55;16.27;;;-7.70;98.60;;;;;;5041908;28;20017;-79
2023/02/18 03:12:34;;;;;;;25.13;11.35;;;-7.70;98.50;;;;;;5045302;28;20045;-78
2023/02/18 03:15:03;;;;;;;30.25;12.27;;;-7.60;98.60;;;;;;5045961;28;20023;-79
2023/02/18 03:17:36;;;;;;;20.38;12.05;;;-7.70;98.50;;;;;;5052211;28;20032;-77
2023/02/18 03:20:11;;;;;;;24.95;14.40;;;-7.60;98.60;;;;;;5051325;28;20374;-80
2023/02/18 03:22:43;;;;;;;18.77;12.52;;;-7.70;98.60;;;;;;5052821;28;20118;-79
2023/02/18 03:25:11;;;;;;;29.98;16.48;;;-7.70;98.70;;;;;;5047379;28;20121;-79
2023/02/18 03:27:39;;;;;;;;;;;-7.70;98.90;;;;;;5049802;28;20033;-78
2023/02/18 03:30:28;;;;;;;33.65;15.10;;;-7.70;99.00;;;;;;5044930;28;19905;-80
2023/02/18 03:33:01;;;;;;;40.28;18.77;;;-7.60;99.10;;;;;;5033995;28;20041;-79
2023/02/18 03:35:28;;;;;;;40.40;21.35;;;-7.60;99.00;;;;;;5050360;28;20075;-79
2023/02/18 03:38:01;;;;;;;38.92;19.13;;;-7.50;99.20;;;;;;5054498;28;20041;-80
2023/02/18 03:40:29;;;;;;;46.70;25.65;;;-7.50;99.30;;;;;;5052511;28;20033;-80
2023/02/18 03:42:57;;;;;;;55.42;25.23;;;-7.40;99.20;;;;;;5028891;28;20526;-80
2023/02/18 03:45:24;;;;;;;43.25;20.77;;;-7.30;99.30;;;;;;5049131;28;20013;-78
2023/02/18 03:47:50;;;;;;;43.00;22.52;;;-7.30;99.00;;;;;;5052052;28;20037;-79
2023/02/18 03:50:16;;;;;;;55.20;26.25;;;-7.40;98.80;;;;;;5052084;28;20025;-80
2023/02/18 03:52:42;;;;;;;51.72;26.58;;;-7.40;98.80;;;;;;5052406;28;20083;-80
2023/02/18 03:55:08;;;;;;;47.40;21.08;;;-7.40;99.00;;;;;;5052405;28;20709;-80
2023/02/18 03:57:34;;;;;;;52.35;26.80;;;-7.50;98.70;;;;;;5034443;28;20029;-79
2023/02/18 04:00:00;;;;;;;46.33;24.15;;;-7.50;98.80;;;;;;5053280;28;20028;-78
2023/02/18 04:02:26;;;;;;;36.33;21.00;;;-7.50;98.90;;;;;;5027084;28;20021;-80
2023/02/18 04:04:52;;;;;;;59.33;27.65;;;-7.50;98.80;;;;;;5055198;28;20045;-80
2023/02/18 04:07:18;;;;;;;47.25;21.95;;;-7.50;98.80;;;;;;5055282;28;20040;-80
2023/02/18 04:09:44;;;;;;;43.60;21.70;;;-7.50;98.70;;;;;;5052858;28;20485;-79
2023/02/18 04:12:10;;;;;;;54.88;26.05;;;-7.60;98.80;;;;;;5052518;28;20052;-79
2023/02/18 04:14:36;;;;;;;52.67;22.58;;;-7.60;98.70;;;;;;5052508;28;20018;-80
2023/02/18 04:17:02;;;;;;;53.17;26.65;;;-7.60;98.80;;;;;;5031068;28;20402;-77
2023/02/18 04:19:27;;;;;;;38.20;19.05;;;-7.70;98.80;;;;;;5051837;28;20024;-78
2023/02/18 04:21:53;;;;;;;57.15;26.35;;;-7.70;99.00;;;;;;5052513;28;20025;-79
2023/02/18 04:24:19;;;;;;;20.45;15.50;;;-7.70;99.10;;;;;;5026750;28;20478;-78
2023/02/18 04:26:45;;;;;;;41.03;20.50;;;-7.60;99.10;;;;;;5047112;28;20033;-79
2023/02/18 04:29:11;;;;;;;47.55;27.40;;;-7.60;99.10;;;;;;5032862;28;20057;-80
2023/02/18 04:31:37;;;;;;;42.92;21.80;;;-7.60;99.20;;;;;;5043460;28;20470;-79
2023/02/18 04:34:03;;;;;;;38.78;17.60;;;-7.60;99.30;;;;;;5056633;28;20021;-80
2023/02/18 04:36:29;;;;;;;49.97;26.13;;;-7.60;99.30;;;;;;5059411;28;20816;-80
2023/02/18 04:38:54;;;;;;;52.50;25.20;;;-7.50;99.20;;;;;;5051703;28;20441;-81
2023/02/18 04:41:20;;;;;;;53.88;25.60;;;-7.50;99.20;;;;;;5056776;28;20114;-81
2023/02/18 04:43:46;;;;;;;47.88;24.10;;;-7.50;99.30;;;;;;5046275;28;20017;-79
2023/02/18 04:46:12;;;;;;;50.80;26.02;;;-7.40;99.40;;;;;;5050903;28;20489;-81
2023/02/18 04:48:38;;;;;;;45.60;25.50;;;-7.30;99.30;;;;;;5060271;28;20032;-79
2023/02/18 04:51:04;;;;;;;52.63;23.83;;;-7.30;99.00;;;;;;5070237;28;20035;-81
2023/02/18 04:53:30;;;;;;;50.13;26.77;;;-7.30;98.70;;;;;;5064225;28;20079;-81
2023/02/18 04:55:56;;;;;;;54.03;25.73;;;-7.40;99.00;;;;;;5059798;28;20482;-80
2023/02/18 04:58:22;;;;;;;33.78;17.00;;;-7.40;98.60;;;;;;5058108;28;20082;-79
2023/02/18 05:00:48;;;;;;;34.55;19.08;;;-7.40;98.70;;;;;;5058202;28;20028;-79
2023/02/18 05:03:14;;;;;;;46.53;23.63;;;-7.40;98.80;;;;;;5043524;28;20021;-80
2023/02/18 05:05:40;;;;;;;45.78;24.08;;;-7.40;98.90;;;;;;5056107;28;20479;-79
2023/02/18 05:08:07;;;;;;;39.67;19.98;;;-7.30;99.00;;;;;;5056781;28;20025;-80
2023/02/18 05:10:33;;;;;;;38.38;18.25;;;-7.30;98.80;;;;;;5041178;28;20482;-78
2023/02/18 05:13:00;;;;;;;44.55;23.38;;;-7.30;98.80;;;;;;5055681;28;20052;-80
2023/02/18 05:15:26;;;;;;;41.17;17.48;;;-7.20;99.00;;;;;;5053596;28;20010;-79
2023/02/18 05:17:52;;;;;;;35.97;18.73;;;-7.20;98.80;;;;;;5050874;28;20018;-80
2023/02/18 05:20:18;;;;;;;38.05;17.73;;;-7.20;98.60;;;;;;5053703;28;20021;-80
2023/02/18 05:22:43;;;;;;;34.70;21.23;;;-7.30;98.50;;;;;;5033143;28;20072;-79
2023/02/18 05:25:09;;;;;;;33.08;20.02;;;-7.20;98.90;;;;;;5052158;28;20128;-79
2023/02/18 05:27:35;;;;;;;38.88;19.15;;;-7.20;98.70;;;;;;5053921;28;20040;-78
2023/02/18 05:30:01;;;;;;;34.83;19.98;;;-7.10;98.70;;;;;;5036472;28;20443;-79
2023/02/18 05:32:27;;;;;;;41.80;22.40;;;-7.10;98.70;;;;;;5054601;28;20033;-80
2023/02/18 05:34:53;;;;;;;38.03;20.23;;;-7.00;98.80;;;;;;5053762;28;20436;-81
2023/02/18 05:37:19;;;;;;;37.67;20.80;;;-7.00;98.60;;;;;;5052147;28;20037;-79
2023/02/18 05:39:45;;;;;;;44.75;21.83;;;-7.00;98.40;;;;;;5056002;28;20100;-80
2023/02/18 05:42:11;;;;;;;41.58;21.50;;;-7.00;98.50;;;;;;5055265;28;20067;-80
2023/02/18 05:44:36;;;;;;;40.88;22.50;;;-7.00;98.50;;;;;;5053028;28;20474;-79
2023/02/18 05:47:09;;;;;;;40.35;22.10;;;-6.90;98.40;;;;;;5054227;28;20040;-80
2023/02/18 05:49:35;;;;;;;36.88;21.92;;;-6.90;98.40;;;;;;5054485;28;20021;-81
2023/02/18 05:52:02;;;;;;;35.80;19.00;;;-6.90;98.40;;;;;;5059829;28;20040;-80
2023/02/18 05:54:28;;;;;;;47.67;21.63;;;-6.80;98.40;;;;;;5047144;28;20033;-79
2023/02/18 05:56:55;;;;;;;27.00;16.90;;;-6.80;98.30;;;;;;5053909;28;20379;-78
2023/02/18 05:59:21;;;;;;;40.70;21.73;;;-6.70;98.70;;;;;;5040992;28;20092;-79
2023/02/18 06:01:47;;;;;;;37.90;20.27;;;-6.70;98.40;;;;;;5046961;28;20040;-80
2023/02/18 06:04:14;;;;;;;44.45;23.48;;;-6.70;98.20;;;;;;5023651;28;20028;-79
2023/02/18 06:06:41;;;;;;;48.42;26.33;;;-6.70;98.40;;;;;;5038211;28;20064;-78
2023/02/18 06:09:07;;;;;;;47.80;23.40;;;-6.60;98.30;;;;;;5041306;28;20521;-78
2023/02/18 06:11:35;;;;;;;49.75;25.67;;;-6.60;98.30;;;;;;5030603;28;20124;-78
2023/02/18 06:14:01;;;;;;;37.58;17.33;;;-6.50;98.20;;;;;;5043514;28;20367;-80
2023/02/18 06:16:27;;;;;;;49.75;25.33;;;-6.60;97.70;;;;;;5056501;28;20025;-80
2023/02/18 06:18:54;;;;;;;46.92;27.80;;;-6.70;97.50;;;;;;5043024;28;20135;-78
2023/02/18 06:21:20;;;;;;;47.17;26.45;;;-6.80;97.70;;;;;;5056089;28;20079;-79
2023/02/18 06:23:46;;;;;;;40.40;23.60;;;-6.70;97.80;;;;;;5040702;28;20037;-80
2023/02/18 06:26:12;;;;;;;46.03;21.67;;;-6.70;97.80;;;;;;5056349;28;20108;-80
2023/02/18 06:28:38;;;;;;;42.85;20.10;;;-6.60;97.70;;;;;;5054937;28;20037;-79
2023/02/18 06:31:04;;;;;;;39.40;19.98;;;-6.70;96.80;;;;;;5040057;28;20025;-79
2023/02/18 06:33:30;;;;;;;33.83;17.23;;;-6.70;97.20;;;;;;5056482;28;20036;-80
2023/02/18 06:35:59;;;;;;;35.13;17.55;;;-6.60;97.40;;;;;;5037524;28;20021;-79
2023/02/18 06:38:25;;;;;;;26.85;17.08;;;-6.70;96.90;;;;;;5039078;28;20056;-78
2023/02/18 06:40:51;;;;;;;29.70;16.92;;;-6.60;96.90;;;;;;5056520;28;20021;-79
2023/02/18 06:43:18;;;;;;;33.85;18.10;;;-6.60;96.90;;;;;;5030379;28;20027;-79
2023/02/18 06:45:44;;;;;;;26.13;14.82;;;-6.50;96.70;;;;;;5053013;28;20078;-80
2023/02/18 06:48:10;;;;;;;25.95;12.88;;;-6.50;96.40;;;;;;5057603;28;20093;-79
2023/02/18 06:50:36;;;;;;;38.20;15.90;;;-6.40;96.40;;;;;;5055030;28;20028;-80
2023/02/18 06:53:02;;;;;;;24.70;15.48;;;-6.40;96.40;;;;;;5056730;28;20013;-81
2023/02/18 06:55:28;;;;;;;24.60;12.20;;;-6.30;96.50;;;;;;5057138;28;20021;-81
2023/02/18 06:57:54;;;;;;;20.98;13.63;;;-6.10;96.50;;;;;;5058309;28;20025;-79
2023/02/18 07:00:21;;;;;;;19.27;14.13;;;-6.10;96.20;;;;;;5058961;28;20130;-79
2023/02/18 07:02:47;;;;;;;17.63;9.90;;;-6.10;96.00;;;;;;5055671;28;20013;-80
2023/02/18 07:05:13;;;;;;;24.40;14.88;;;-6.00;96.00;;;;;;5056911;28;20108;-80
2023/02/18 07:07:39;;;;;;;20.08;12.73;;;-6.00;95.90;;;;;;5057688;28;20033;-80
2023/02/18 07:10:06;;;;;;;22.15;11.30;;;-5.80;96.00;;;;;;5038583;28;20074;-79
2023/02/18 07:12:32;;;;;;;18.50;11.75;;;-5.70;95.60;;;;;;5049604;28;20052;-80
2023/02/18 07:14:58;;;;;;;15.43;10.20;;;-5.50;95.60;;;;;;5031206;28;20155;-78
2023/02/18 07:17:24;;;;;;;15.02;10.07;;;-5.40;95.50;;;;;;5039496;28;20040;-80
2023/02/18 07:19:50;;;;;;;15.40;10.13;;;-5.30;95.00;;;;;;5039863;28;20028;-78
2023/02/18 07:22:16;;;;;;;15.20;8.27;;;-5.40;94.40;;;;;;5039839;28;20470;-79
2023/02/18 07:24:42;;;;;;;15.75;9.18;;;-5.60;94.40;;;;;;5068160;28;20025;-79
2023/02/18 07:27:09;;;;;;;13.68;10.25;;;-5.60;94.30;;;;;;5058986;28;20033;-81
2023/02/18 07:29:34;;;;;;;15.32;8.80;;;-5.60;94.30;;;;;;5059021;28;20455;-80
2023/02/18 07:32:00;;;;;;;13.45;8.57;;;-5.60;94.30;;;;;;5057715;28;20025;-80
2023/02/18 07:34:26;;;;;;;12.35;7.35;;;-5.50;94.30;;;;;;5060357;28;20029;-80
2023/02/18 07:36:52;;;;;;;12.18;8.65;;;-5.40;94.30;;;;;;5046211;28;20036;-80
2023/02/18 07:39:19;;;;;;;11.10;6.93;;;-5.40;94.00;;;;;;5045322;28;20035;-80
2023/02/18 07:41:46;;;;;;;13.15;8.15;;;-5.20;94.20;;;;;;5054921;28;20470;-79
2023/02/18 07:44:13;;;;;;;20.90;12.48;;;-5.20;93.90;;;;;;5056120;28;20086;-80
2023/02/18 07:46:40;;;;;;;17.52;9.13;;;-5.10;93.80;;;;;;5060397;28;20068;-80
2023/02/18 07:49:07;;;;;;;13.32;9.10;;;-4.90;94.10;;;;;;5057943;28;20107;-81
2023/02/18 07:51:33;;;;;;;18.05;8.23;;;-4.80;94.00;;;;;;5057444;28;20464;-80
2023/02/18 07:54:03;;;;;;;13.52;8.30;;;-4.60;93.70;;;;;;5055104;28;20064;-80
2023/02/18 07:56:28;;;;;;;13.82;7.93;;;-4.50;93.40;;;;;;5022195;28;20036;-81
2023/02/18 07:58:54;;;;;;;13.45;8.15;;;-4.50;93.20;;;;;;5034822;28;20029;-79
2023/02/18 08:01:20;;;;;;;14.80;8.65;;;-4.70;92.50;;;;;;5054596;28;20025;-81
2023/02/18 08:03:46;;;;;;;13.07;7.60;;;-4.80;93.00;;;;;;5061532;28;20104;-80
2023/02/18 08:06:34;;;;;;;15.98;7.82;;;-4.80;92.80;;;;;;5060726;28;20021;-79
2023/02/18 08:09:00;;;;;;;11.45;8.40;;;-4.80;92.90;;;;;;5050017;28;20442;-80
2023/02/18 08:11:27;;;;;;;14.48;8.75;;;-4.80;93.10;;;;;;5045903;28;20401;-81
2023/02/18 08:13:53;;;;;;;12.40;8.00;;;-4.80;93.10;;;;;;5042830;28;20073;-82
2023/02/18 08:16:20;;;;;;;12.45;7.35;;;-4.90;93.00;;;;;;5062173;28;20025;-79
2023/02/18 08:18:48;;;;;;;10.38;6.38;;;-4.90;93.20;;;;;;5057389;28;20021;-79
2023/02/18 08:21:16;;;;;;;15.77;7.32;;;-4.90;93.40;;;;;;5042447;28;20030;-80
2023/02/18 08:23:42;;;;;;;;;;;-4.80;93.80;;;;;;5057859;28;20020;-80
2023/02/18 08:26:09;;;;;;;16.30;9.40;;;-4.70;93.30;;;;;;5041727;28;19958;-82
2023/02/18 08:28:35;;;;;;;16.23;9.20;;;-4.80;93.40;;;;;;5059081;28;20553;-81
2023/02/18 08:31:01;;;;;;;12.15;8.15;;;-4.80;93.50;;;;;;5056595;28;20029;-80
2023/02/18 08:33:27;;;;;;;13.25;5.80;;;-4.70;93.60;;;;;;5049456;28;20147;-80
2023/02/18 08:35:54;;;;;;;10.75;6.70;;;-4.70;93.70;;;;;;5040909;28;20036;-81
2023/02/18 08:38:22;;;;;;;6.15;3.53;;;-4.50;93.70;;;;;;5041762;28;20381;-81
2023/02/18 08:40:48;;;;;;;12.23;6.05;;;-4.50;93.60;;;;;;5042238;28;20029;-79
2023/02/18 08:43:15;;;;;;;11.63;7.53;;;-4.50;93.70;;;;;;5058161;28;20485;-81
2023/02/18 08:45:41;;;;;;;10.32;7.38;;;-4.50;93.80;;;;;;5056954;28;20025;-79
2023/02/18 08:48:12;;;;;;;13.18;8.02;;;-4.30;93.80;;;;;;5048479;28;20493;-81
2023/02/18 08:50:41;;;;;;;13.38;6.60;;;-4.20;93.60;;;;;;5059059;28;20021;-80
2023/02/18 08:53:09;;;;;;;14.52;8.20;;;-4.20;93.50;;;;;;5047923;28;20021;-81
2023/02/18 08:55:37;;;;;;;12.50;5.57;;;-4.10;93.50;;;;;;5040339;28;20485;-80
2023/02/18 08:58:04;;;;;;;8.95;6.53;;;-4.00;93.50;;;;;;5039270;28;20025;-80
2023/02/18 09:00:30;;;;;;;11.52;7.90;;;-4.10;92.80;;;;;;5048597;28;20023;-80
2023/02/18 09:02:56;;;;;;;10.63;6.05;;;-4.20;93.30;;;;;;5049103;28;20056;-81
2023/02/18 09:05:22;;;;;;;12.23;6.57;;;-4.10;93.10;;;;;;5059936;28;20351;-80
2023/02/18 09:07:48;;;;;;;10.63;5.32;;;-4.20;93.20;;;;;;5062583;28;20029;-79
2023/02/18 09:10:14;;;;;;;12.45;7.32;;;-4.20;93.20;;;;;;5062260;28;20021;-80
2023/02/18 09:12:43;;;;;;;11.80;7.40;;;-4.30;93.20;;;;;;5059547;28;20049;-80
2023/02/18 09:15:09;;;;;;;10.68;6.15;;;-4.20;93.50;;;;;;5059006;28;20032;-82
2023/02/18 09:17:35;;;;;;;10.68;7.60;;;-4.00;93.30;;;;;;5058885;28;20025;-80
2023/02/18 09:20:01;;;;;;;13.35;7.68;;;-3.80;93.40;;;;;;5041084;28;20027;-80
2023/02/18 09:22:27;;;;;;;12.35;7.57;;;-3.70;93.20;;;;;;5060056;28;20052;-81
2023/02/18 09:24:53;;;;;;;14.43;8.77;;;-3.70;92.80;;;;;;5041481;28;20040;-80
2023/02/18 09:27:18;;;;;;;14.85;8.05;;;-3.60;93.10;;;;;;5044555;28;20479;-81
2023/02/18 09:29:44;;;;;;;11.90;7.05;;;-3.40;93.30;;;;;;5060867;28;20028;-81
2023/02/18 09:32:11;;;;;;;14.60;9.50;;;-3.30;92.40;;;;;;5042476;28;20025;-79
2023/02/18 09:34:37;;;;;;;12.02;8.20;;;-3.30;92.60;;;;;;5041151;28;20021;-82
2023/02/18 09:37:04;;;;;;;11.13;7.20;;;-3.20;92.70;;;;;;5049867;28;20024;-80
2023/02/18 09:39:29;;;;;;;18.58;8.27;;;-3.20;92.40;;;;;;5043567;28;20025;-79
2023/02/18 09:42:03;;;;;;;11.80;7.10;;;-3.30;92.30;;;;;;5059574;28;20048;-79
2023/02/18 09:44:33;;;;;;;17.52;9.05;;;-3.30;92.30;;;;;;5053570;28;20079;-81
2023/02/18 09:47:09;;;;;;;12.20;8.32;;;-3.20;92.30;;;;;;5058185;28;20039;-80
2023/02/18 09:49:39;;;;;;;14.20;8.02;;;-3.00;92.50;;;;;;5044863;28;20025;-80
2023/02/18 09:52:22;;;;;;;10.93;7.13;;;-2.80;91.90;;;;;;5058148;28;20025;-80
2023/02/18 09:54:51;;;;;;;12.02;6.90;;;-2.70;91.70;;;;;;5041507;28;20031;-80
2023/02/18 09:57:23;;;;;;;15.18;8.52;;;-2.60;91.40;;;;;;5042132;28;20021;-80
2023/02/18 09:59:56;;;;;;;10.90;8.05;;;-2.50;91.40;;;;;;5063655;28;20048;-81
2023/02/18 10:02:22;;;;;;;15.13;10.57;;;-2.40;91.30;;;;;;5064867;28;20381;-81
2023/02/18 10:04:51;;;;;;;15.05;8.65;;;-2.20;91.40;;;;;;5059863;28;20021;-80
2023/02/18 10:07:30;;;;;;;14.98;7.85;;;-2.10;91.10;;;;;;5060163;28;20130;-81
2023/02/18 10:10:00;;;;;;;19.65;9.85;;;-2.10;91.30;;;;;;5059456;28;20115;-80
2023/02/18 10:12:27;;;;;;;15.40;9.65;;;-1.90;90.90;;;;;;5059051;28;20508;-81
2023/02/18 10:14:58;;;;;;;15.30;9.35;;;-1.80;90.30;;;;;;5051207;28;20051;-80
2023/02/18 10:17:27;;;;;;;13.23;9.10;;;-2.00;90.20;;;;;;5034826;28;20021;-79
2023/02/18 10:19:55;;;;;;;14.13;8.68;;;-2.10;90.30;;;;;;5056542;28;20103;-79
2023/02/18 10:22:24;;;;;;;15.88;10.20;;;-2.00;90.40;;;;;;5031508;28;20043;-78
2023/02/18 10:24:59;;;;;;;16.08;9.30;;;-2.10;90.30;;;;;;5046846;28;20552;-79
2023/02/18 10:27:30;;;;;;;13.38;8.02;;;-2.10;90.50;;;;;;5056356;28;20033;-80
2023/02/18 10:30:22;;;;;;;15.65;10.35;;;-2.10;90.20;;;;;;5043959;28;20378;-81
2023/02/18 10:33:00;;;;;;;13.45;9.00;;;-1.90;90.50;;;;;;5045972;28;20159;-79
2023/02/18 10:36:01;;;;;;;12.10;8.82;;;-1.70;89.60;;;;;;5038097;28;20029;-80
2023/02/18 10:39:14;;;;;;;13.75;8.68;;;-1.80;89.10;;;;;;4975614;28;20112;-80
2023/02/18 10:42:09;;;;;;;17.13;9.30;;;-1.90;89.40;;;;;;4927208;29;20055;-80
2023/02/18 10:44:54;;;;;;;17.55;9.15;;;-2.10;89.20;;;;;;4974477;28;20062;-80
2023/02/18 10:48:02;;;;;;;13.82;7.93;;;-2.20;90.00;;;;;;4974552;28;20090;-80
2023/02/18 10:50:32;;;;;;;11.00;8.27;;;-2.20;90.00;;;;;;4979427;28;20123;-79
2023/02/18 10:53:07;;;;;;;12.70;8.25;;;-2.20;89.70;;;;;;4981433;28;20038;-82
2023/02/18 10:55:45;;;;;;;13.25;8.95;;;-2.10;90.00;;;;;;4975023;28;20038;-81
2023/02/18 10:58:42;;;;;;;14.02;8.05;;;-2.00;90.10;;;;;;4973269;28;20019;-82
2023/02/18 11:01:13;;;;;;;;;;;-1.90;89.50;;;;;;4972496;28;20033;-80
2023/02/18 11:03:42;;;;;;;12.85;8.63;;;-1.90;89.60;;;;;;4972732;28;20834;-80
2023/02/18 11:06:40;;;;;;;14.85;9.40;;;-1.90;88.90;;;;;;4973498;28;20234;-81
2023/02/18 11:09:08;;;;;;;14.77;9.95;;;-1.80;89.40;;;;;;4973907;28;20094;-80
2023/02/18 11:11:38;;;;;;;14.18;9.57;;;-1.70;89.00;;;;;;4979065;28;20038;-80
2023/02/18 11:14:06;;;;;;;12.73;9.30;;;-1.80;88.80;;;;;;5041419;28;20017;-79
2023/02/18 11:16:52;;;;;;;17.33;9.90;;;-1.70;88.90;;;;;;5055529;28;20500;-79
2023/02/18 11:19:38;;;;;;;15.80;8.90;;;-1.60;88.70;;;;;;5059270;28;20043;-79
2023/02/18 11:22:10;;;;;;;21.60;10.48;;;-1.60;88.30;;;;;;5056615;28;20482;-80
2023/02/18 11:24:38;;;;;;;13.85;9.23;;;-1.60;88.00;;;;;;5061315;28;20026;-78
2023/02/18 11:27:29;;;;;;;17.52;11.05;;;-1.60;88.00;;;;;;5057277;28;20076;-80
2023/02/18 11:30:04;;;;;;;15.80;8.73;;;-1.60;88.00;;;;;;5043757;28;20087;-79
2023/02/18 11:32:32;;;;;;;13.77;9.30;;;-1.80;87.10;;;;;;5051524;28;20040;-77
2023/02/18 11:34:59;;;;;;;18.50;11.07;;;-2.00;87.60;;;;;;5050592;28;20071;-78
2023/02/18 11:37:25;;;;;;;18.08;10.35;;;-2.10;88.20;;;;;;5041696;28;20033;-78
2023/02/18 11:39:53;;;;;;;15.73;9.25;;;-2.10;88.40;;;;;;5059116;28;20055;-79
2023/02/18 11:42:23;;;;;;;16.83;10.55;;;-2.20;88.70;;;;;;5056870;28;20029;-78
2023/02/18 11:44:55;;;;;;;16.17;9.65;;;-2.10;88.70;;;;;;5049244;28;20026;-77
2023/02/18 11:47:41;;;;;;;19.23;11.38;;;-2.10;88.30;;;;;;5053330;28;20417;-78
2023/02/18 11:50:15;;;;;;;15.20;10.40;;;-2.10;88.60;;;;;;5028216;28;20382;-76
2023/02/18 11:52:45;;;;;;;16.60;10.30;;;-2.10;88.80;;;;;;5031017;28;20033;-77
2023/02/18 11:55:16;;;;;;;13.88;10.05;;;-2.10;88.90;;;;;;5035610;28;20019;-77
2023/02/18 11:57:55;;;;;;;18.30;10.95;;;-2.10;88.90;;;;;;5054213;28;20056;-77
2023/02/18 12:00:36;;;;;;;18.23;11.70;;;-2.10;89.00;;;;;;5053095;28;20048;-77
2023/02/18 12:03:08;;;;;;;16.95;9.98;;;-2.00;88.80;;;;;;5039629;28;20025;-79
2023/02/18 12:05:36;;;;;;;15.00;10.18;;;-2.10;88.30;;;;;;5050346;28;20057;-79
2023/02/18 12:08:13;;;;;;;16.38;11.40;;;-2.10;88.50;;;;;;5051270;28;20033;-80
2023/02/18 12:10:41;;;;;;;;;;;-2.20;88.50;;;;;;5041224;28;20032;-80
2023/02/18 12:13:25;;;;;;;13.38;8.38;;;-2.20;88.70;;;;;;5048039;28;20293;-78
2023/02/18 12:16:03;;;;;;;15.82;9.13;;;-2.40;88.70;;;;;;5036136;28;20458;-78
2023/02/18 12:18:59;;;;;;;24.15;13.18;;;-2.50;88.90;;;;;;5051006;28;20029;-79
2023/02/18 12:21:43;;;;;;;13.57;8.75;;;-2.60;89.40;;;;;;5067278;28;20173;-79
2023/02/18 12:24:40;;;;;;;16.58;10.23;;;-2.60;89.50;;;;;;5059403;28;20085;-80
2023/02/18 12:27:36;;;;;;;14.38;7.50;;;-2.70;89.70;;;;;;5044830;28;20112;-80
2023/02/18 12:30:13;;;;;;;15.43;9.38;;;-2.80;90.00;;;;;;5041048;28;20025;-80
2023/02/18 12:32:47;;;;;;;16.15;8.70;;;-2.80;90.10;;;;;;5049269;28;20106;-79
2023/02/18 12:35:22;;;;;;;17.58;10.38;;;-2.80;90.10;;;;;;5017750;28;20466;-80
2023/02/18 12:38:18;;;;;;;14.35;9.20;;;-2.90;90.20;;;;;;5035163;28;20017;-78
2023/02/18 12:41:28;;;;;;;14.25;9.30;;;-2.90;90.30;;;;;;5054240;28;20059;-80
2023/02/18 12:44:09;;;;;;;13.90;7.63;;;-3.00;90.40;;;;;;5021041;28;20108;-80
2023/02/18 12:46:59;;;;;;;19.40;10.20;;;-3.10;90.30;;;;;;5058117;28;20037;-79
2023/02/18 12:49:52;;;;;;;15.18;9.57;;;-3.20;90.50;;;;;;5033052;28;20500;-80